createdAt,value
2023-10-06T00:04:39.723Z,5.90
2023-10-06T00:09:44.695Z,5.38
2023-10-06T00:14:49.850Z,5.30
2023-10-06T00:19:53.467Z,5.28
2023-10-06T00:25:01.133Z,5.20
2023-10-06T00:30:12.654Z,4.38
2023-10-06T00:35:18.174Z,4.70
2023-10-06T00:40:26.140Z,5.03
2023-10-06T00:45:31.501Z,4.63
2023-10-06T00:50:34.401Z,4.97
2023-10-06T00:55:36.647Z,5.57
2023-10-06T01:00:39.438Z,5.20
2023-10-06T01:05:45.985Z,5.32
2023-10-06T01:10:52.346Z,4.75
2023-10-06T01:15:57.569Z,5.20
2023-10-06T01:21:10.671Z,5.75
2023-10-06T01:26:14.193Z,5.20
2023-10-06T01:31:15.971Z,5.60
2023-10-06T01:36:23.125Z,4.72
2023-10-06T01:41:27.707Z,4.45
2023-10-06T01:46:30.226Z,4.32
2023-10-06T01:51:39.962Z,4.70
2023-10-06T02:01:46.020Z,3.72
2023-10-06T02:06:49.419Z,4.55
2023-10-06T02:11:51.055Z,4.45
2023-10-06T02:16:56.642Z,5.13
2023-10-06T02:21:58.427Z,4.88
2023-10-06T02:27:02.236Z,5.13
2023-10-06T02:32:10.149Z,4.55
2023-10-06T02:37:11.777Z,4.22
2023-10-06T02:42:15.725Z,4.45
2023-10-06T02:47:18.942Z,3.60
2023-10-06T02:52:23.836Z,4.75
2023-10-06T02:57:26.815Z,4.45
2023-10-06T03:02:29.403Z,4.78
2023-10-06T03:07:31.601Z,4.07
2023-10-06T03:12:33.378Z,4.90
2023-10-06T03:17:35.529Z,4.75
2023-10-06T03:22:39.353Z,4.68
2023-10-06T03:27:42.481Z,5.32
2023-10-06T03:32:53.297Z,4.75
2023-10-06T03:38:08.889Z,4.47
2023-10-06T03:43:14.160Z,4.40
2023-10-06T03:48:15.909Z,3.90
2023-10-06T03:53:18.806Z,4.00
2023-10-06T03:58:20.683Z,3.83
2023-10-06T04:03:22.881Z,4.25
2023-10-06T04:08:24.547Z,4.05
2023-10-06T04:13:27.291Z,3.75
2023-10-06T04:18:28.888Z,4.05
2023-10-06T04:23:31.296Z,4.13
2023-10-06T04:28:32.901Z,4.07
2023-10-06T04:33:34.683Z,4.07
2023-10-06T04:38:40.990Z,4.13
2023-10-06T04:43:45.804Z,3.63
2023-10-06T04:48:49.600Z,3.40
2023-10-06T04:53:51.357Z,3.38
2023-10-06T04:58:55.037Z,3.90
2023-10-06T05:03:56.874Z,4.43
2023-10-06T05:08:58.536Z,4.65
2023-10-06T05:14:00.243Z,4.85
2023-10-06T05:19:04.517Z,5.13
2023-10-06T05:24:09.761Z,6.18
2023-10-06T05:29:15.597Z,7.20
2023-10-06T05:34:18.775Z,6.90
2023-10-06T05:39:20.486Z,7.63
2023-10-06T05:44:22.679Z,7.65
2023-10-06T05:49:24.334Z,8.80
2023-10-06T05:54:28.064Z,7.95
2023-10-06T05:59:30.579Z,8.77
2023-10-06T06:04:32.317Z,7.95
2023-10-06T06:09:34.930Z,9.23
2023-10-06T06:14:36.705Z,9.10
2023-10-06T06:19:40.162Z,9.82
2023-10-06T06:24:42.131Z,8.23
2023-10-06T06:29:47.450Z,8.07
2023-10-06T06:34:49.257Z,8.27
2023-10-06T06:39:50.903Z,9.23
2023-10-06T06:44:53.208Z,8.93
2023-10-06T06:49:56.144Z,8.18
2023-10-06T06:54:57.793Z,7.60
2023-10-06T07:00:09.861Z,8.25
2023-10-06T07:05:12.895Z,7.90
2023-10-06T07:10:23.871Z,7.97
2023-10-06T07:15:29.163Z,7.90
2023-10-06T07:20:31.767Z,8.15
2023-10-06T07:25:33.507Z,7.53
2023-10-06T07:30:45.218Z,7.32
2023-10-06T07:36:45.385Z,6.60
2023-10-06T07:48:47.215Z,6.38
2023-10-06T08:22:00.584Z,6.30
2023-10-06T08:27:03.603Z,6.25
2023-10-06T08:32:07.730Z,6.07
2023-10-06T08:37:12.381Z,5.90
2023-10-06T08:42:18.869Z,5.63
2023-10-06T08:47:27.920Z,6.13
2023-10-06T08:52:34.053Z,4.93
2023-10-06T08:57:35.855Z,5.00
2023-10-06T09:02:37.522Z,4.85
2023-10-06T09:07:39.354Z,4.72
2023-10-06T09:12:43.658Z,4.78
2023-10-06T09:17:46.523Z,4.80
2023-10-06T09:22:50.802Z,4.43
2023-10-06T09:28:04.611Z,4.55
2023-10-06T09:33:06.397Z,3.92
2023-10-06T09:38:17.319Z,4.45
2023-10-06T09:43:22.563Z,4.60
2023-10-06T09:48:27.326Z,4.60
2023-10-06T09:53:31.621Z,4.75
2023-10-06T09:58:34.629Z,4.45
2023-10-06T10:03:38.884Z,5.03
2023-10-06T10:08:42.592Z,4.50
2023-10-06T10:14:27.980Z,4.75
2023-10-06T10:19:30.122Z,4.28
2023-10-06T10:25:09.825Z,4.13
2023-10-06T10:29:57.411Z,4.80
2023-10-06T10:35:18.150Z,4.65
2023-10-06T10:40:49.919Z,4.18
2023-10-06T10:45:54.864Z,4.47
2023-10-06T10:51:12.075Z,4.18
2023-10-06T10:56:27.827Z,3.63
2023-10-06T11:01:52.656Z,3.42
2023-10-06T11:06:59.343Z,3.70
2023-10-06T11:12:24.764Z,4.00
2023-10-06T11:17:33.725Z,3.22
2023-10-06T11:22:35.655Z,3.30
2023-10-06T11:27:39.329Z,3.47
2023-10-06T11:32:44.687Z,3.80
2023-10-06T11:37:46.393Z,3.45
2023-10-06T11:42:48.061Z,3.50
2023-10-06T11:47:50.233Z,3.67
2023-10-06T11:52:52.893Z,4.40
2023-10-06T11:57:55.454Z,3.63
2023-10-06T12:02:57.281Z,3.83
2023-10-06T12:08:06.585Z,4.13
2023-10-06T12:13:11.624Z,3.50
2023-10-06T12:18:15.315Z,4.05
2023-10-06T12:23:17.079Z,3.25
2023-10-06T12:28:18.908Z,3.55
2023-10-06T12:33:20.650Z,3.40
2023-10-06T12:38:23.992Z,3.50
2023-10-06T12:43:25.968Z,3.53
2023-10-06T12:48:27.529Z,3.17
2023-10-06T12:53:29.664Z,4.15
2023-10-06T12:58:31.683Z,3.22
2023-10-06T13:03:34.358Z,3.40
2023-10-06T13:09:12.710Z,3.88
2023-10-06T13:14:19.802Z,3.28
2023-10-06T13:19:21.713Z,3.08
2023-10-06T13:24:24.914Z,3.80
2023-10-06T13:29:26.704Z,3.13
2023-10-06T13:34:28.305Z,3.67
2023-10-06T13:39:29.908Z,3.10
2023-10-06T13:44:32.604Z,3.50
2023-10-06T13:49:34.286Z,3.35
2023-10-06T13:54:36.112Z,2.92
2023-10-06T13:59:43.500Z,3.38
2023-10-06T14:04:45.139Z,3.22
2023-10-06T14:09:46.749Z,3.55
2023-10-06T14:14:48.411Z,3.50
2023-10-06T14:19:51.295Z,3.70
2023-10-06T14:24:54.292Z,4.03
2023-10-06T14:29:55.986Z,5.05
2023-10-06T14:35:12.970Z,4.85
2023-10-06T14:40:33.219Z,6.07
2023-10-06T14:45:53.847Z,7.32
2023-10-06T14:50:59.493Z,7.18
2023-10-06T14:56:02.073Z,6.47
2023-10-06T15:01:04.092Z,8.07
2023-10-06T15:06:06.162Z,7.63
2023-10-06T15:11:13.100Z,8.30
2023-10-06T15:16:20.188Z,8.40
2023-10-06T15:21:24.816Z,9.05
2023-10-06T15:26:27.167Z,8.85
2023-10-06T15:31:29.885Z,9.07
2023-10-06T15:36:31.810Z,8.02
2023-10-06T15:41:33.475Z,8.55
2023-10-06T15:46:35.685Z,7.28
2023-10-06T15:51:37.296Z,6.97
2023-10-06T15:56:42.139Z,7.15
2023-10-06T16:01:45.955Z,6.43
2023-10-06T16:06:48.762Z,5.63
2023-10-06T16:11:50.563Z,6.00
2023-10-06T16:16:53.496Z,5.70
2023-10-06T16:21:56.421Z,7.07
2023-10-06T16:26:58.877Z,6.18
2023-10-06T16:32:01.338Z,6.75
2023-10-06T16:37:04.143Z,5.85
2023-10-06T16:42:06.713Z,6.68
2023-10-06T16:47:08.415Z,5.63
2023-10-06T16:52:10.282Z,6.18
2023-10-06T16:57:11.850Z,6.22
2023-10-06T17:02:14.352Z,6.53
2023-10-06T17:07:16.000Z,6.97
2023-10-06T17:12:17.870Z,6.72
2023-10-06T17:17:26.489Z,6.45
2023-10-06T17:22:28.147Z,6.60
2023-10-06T17:27:29.690Z,6.38
2023-10-06T17:32:34.281Z,6.07
2023-10-06T17:37:36.446Z,6.70
2023-10-06T17:42:38.683Z,6.43
2023-10-06T17:47:40.408Z,6.88
2023-10-06T17:52:42.159Z,6.53
2023-10-06T17:57:43.779Z,6.75
2023-10-06T18:02:45.512Z,7.50
2023-10-06T18:07:47.209Z,7.50
2023-10-06T18:12:49.869Z,7.60
2023-10-06T18:17:52.731Z,6.57
2023-10-06T18:22:54.830Z,10.48
2023-10-06T18:27:56.548Z,16.38
2023-10-06T18:32:58.328Z,14.93
2023-10-06T18:37:59.896Z,11.18
2023-10-06T18:43:01.749Z,11.25
2023-10-06T18:48:05.467Z,11.35
2023-10-06T18:53:07.622Z,11.13
2023-10-06T18:58:10.341Z,10.32
2023-10-06T19:03:12.891Z,9.75
2023-10-06T19:08:15.914Z,7.50
2023-10-06T19:13:18.460Z,8.50
2023-10-06T19:18:20.052Z,8.88
2023-10-06T19:23:21.607Z,8.38
2023-10-06T19:28:24.429Z,9.63
2023-10-06T19:33:26.638Z,8.82
2023-10-06T19:38:28.616Z,8.35
2023-10-06T19:43:32.198Z,8.30
2023-10-06T19:48:34.274Z,9.32
2023-10-06T19:53:36.639Z,11.65
2023-10-06T19:58:38.247Z,9.88
2023-10-06T20:03:44.108Z,11.63
2023-10-06T20:08:47.937Z,10.68
2023-10-06T20:13:50.732Z,12.55
2023-10-06T20:18:52.455Z,11.00
2023-10-06T20:23:54.193Z,11.23
2023-10-06T20:28:56.339Z,9.80
2023-10-06T20:33:57.975Z,10.00
2023-10-06T20:38:59.942Z,9.82
2023-10-06T20:44:08.876Z,9.45
2023-10-06T20:49:14.876Z,8.47
2023-10-06T20:54:17.616Z,7.80
2023-10-06T20:59:19.176Z,7.30
2023-10-06T21:04:20.778Z,7.93
2023-10-06T21:09:22.620Z,7.93
2023-10-06T21:14:24.223Z,8.40
2023-10-06T21:19:25.877Z,9.70
2023-10-06T21:24:27.578Z,8.40
2023-10-06T21:29:30.116Z,8.60
2023-10-06T21:34:31.735Z,9.07
2023-10-06T21:39:33.425Z,8.45
2023-10-06T21:44:36.318Z,7.45
2023-10-06T21:49:40.325Z,7.57
2023-10-06T21:54:43.685Z,9.63
2023-10-06T21:59:45.518Z,9.80
2023-10-06T22:04:47.176Z,8.88
2023-10-06T22:09:48.809Z,10.63
2023-10-06T22:14:50.410Z,9.57
2023-10-06T22:19:52.042Z,10.93
2023-10-06T22:24:54.280Z,8.98
2023-10-06T22:29:59.054Z,10.30
2023-10-06T22:35:00.880Z,9.93
2023-10-06T22:40:02.555Z,10.35
2023-10-06T22:45:04.775Z,9.05
2023-10-06T22:50:07.104Z,10.18
2023-10-06T22:55:10.031Z,9.35
2023-10-06T23:00:17.865Z,9.82
2023-10-06T23:05:19.640Z,10.00
2023-10-06T23:10:23.927Z,10.38
2023-10-06T23:15:32.801Z,9.88
2023-10-06T23:20:42.992Z,8.60
2023-10-06T23:25:56.588Z,9.45
2023-10-06T23:30:59.327Z,9.90
2023-10-06T23:36:01.442Z,9.38
2023-10-06T23:41:08.910Z,8.70
2023-10-06T23:46:16.297Z,7.10
2023-10-06T23:51:20.071Z,8.30
2023-10-06T23:56:25.714Z,7.57
